Time;durP1;ratioP1;P1;durP2;ratioP2;P2;SDS_P1;SDS_P2;PMS_P1;PMS_P2;Temp;Humidity;BMP_temperature;BMP_pressure;BME280_temperature;BME280_humidity;BME280_pressure;Samples;Min_cycle;Max_cycle;Signal;HPM_P1;HPM_P2
2022/12/21 00:02:02;;;;;;;22.98;12.00;;;;;;;;;;5037084;28;20157;-78
2022/12/21 00:04:28;;;;;;;29.40;12.85;;;;;;;;;;5036436;28;20147;-78
2022/12/21 00:06:54;;;;;;;23.65;12.77;;;;;;;;;;5019013;28;20475;-77
2022/12/21 00:09:20;;;;;;;28.92;13.13;;;;;;;;;;5036980;28;20045;-78
2022/12/21 00:11:46;;;;;;;30.60;12.80;;;;;;;;;;5036299;28;20073;-78
2022/12/21 00:14:12;;;;;;;35.20;14.07;;;;;;;;;;5036450;28;20057;-78
2022/12/21 00:16:39;;;;;;;33.05;13.30;;;;;;;;;;5036726;28;20053;-77
2022/12/21 00:19:05;;;;;;;21.92;11.98;;;;;;;;;;5041678;28;20037;-77
2022/12/21 00:21:32;;;;;;;27.15;13.13;;;;;;;;;;5043627;28;20045;-78
2022/12/21 00:23:59;;;;;;;28.35;12.70;;;;;;;;;;5036539;28;20041;-77
2022/12/21 00:26:26;;;;;;;27.52;12.75;;;;;;;;;;5036319;28;20116;-77
2022/12/21 00:28:53;;;;;;;32.75;13.35;;;;;;;;;;5036016;28;20033;-77
2022/12/21 00:31:24;;;;;;;23.90;12.48;;;;;;;;;;5036291;28;20540;-78
2022/12/21 00:33:50;;;;;;;24.42;12.02;;;;;;;;;;5036249;28;20100;-78
2022/12/21 00:36:17;;;;;;;29.13;12.45;;;;;;;;;;5036070;28;20359;-78
2022/12/21 00:38:43;;;;;;;28.13;12.52;;;;;;;;;;5036086;28;20124;-77
2022/12/21 00:41:12;;;;;;;24.15;11.70;;;;;;;;;;5036045;28;20056;-78
2022/12/21 00:43:38;;;;;;;25.73;11.65;;;;;;;;;;5036634;28;20050;-78
2022/12/21 00:46:05;;;;;;;31.40;13.18;;;;;;;;;;5036404;28;20041;-77
2022/12/21 00:48:31;;;;;;;33.45;13.00;;;;;;;;;;5020708;28;20477;-78
2022/12/21 00:51:11;;;;;;;22.48;11.00;;;;;;;;;;5040368;28;20046;-78
2022/12/21 00:53:37;;;;;;;31.08;11.63;;;;;;;;;;5035466;28;20374;-78
2022/12/21 00:56:04;;;;;;;27.08;11.70;;;;;;;;;;5036094;28;20053;-77
2022/12/21 00:58:31;;;;;;;43.78;12.55;;;;;;;;;;5040354;28;20381;-77
2022/12/21 01:00:58;;;;;;;48.42;12.80;;;;;;;;;;5037967;28;20102;-78
2022/12/21 01:03:25;;;;;;;58.28;12.50;;;;;;;;;;5004952;28;20065;-77
2022/12/21 01:05:52;;;;;;;38.42;11.35;;;;;;;;;;5036064;28;20083;-78
2022/12/21 01:08:18;;;;;;;68.55;14.52;;;;;;;;;;5034548;28;20504;-78
2022/12/21 01:10:45;;;;;;;50.80;11.68;;;;;;;;;;5035686;28;20493;-78
2022/12/21 01:13:12;;;;;;;54.20;12.43;;;;;;;;;;5035171;28;20045;-78
2022/12/21 01:15:41;;;;;;;21.85;11.18;;;;;;;;;;5028683;28;20494;-77
2022/12/21 01:18:08;;;;;;;16.35;8.93;;;;;;;;;;5038110;28;20040;-77
2022/12/21 01:20:38;;;;;;;21.77;9.93;;;;;;;;;;5055701;28;20040;-78
2022/12/21 01:23:04;;;;;;;22.77;9.05;;;;;;;;;;5037574;28;20136;-78
2022/12/21 01:25:31;;;;;;;19.25;9.18;;;;;;;;;;5047674;28;20175;-77
2022/12/21 01:27:57;;;;;;;25.45;10.18;;;;;;;;;;5035620;28;20115;-77
2022/12/21 01:30:23;;;;;;;36.95;11.27;;;;;;;;;;5001011;28;20050;-77
2022/12/21 01:32:49;;;;;;;50.72;11.43;;;;;;;;;;5039196;28;20091;-78
2022/12/21 01:35:15;;;;;;;29.17;9.23;;;;;;;;;;5039119;28;20045;-77
2022/12/21 01:37:41;;;;;;;56.20;11.65;;;;;;;;;;5034652;28;20446;-77
2022/12/21 01:40:07;;;;;;;43.35;9.73;;;;;;;;;;5035542;28;20096;-77
2022/12/21 01:42:33;;;;;;;50.88;11.07;;;;;;;;;;5034881;28;20125;-78
2022/12/21 01:45:26;;;;;;;61.60;10.88;;;;;;;;;;5034411;28;20041;-78
2022/12/21 01:47:52;;;;;;;70.30;11.00;;;;;;;;;;5037628;28;20095;-78
2022/12/21 01:50:26;;;;;;;102.43;13.82;;;;;;;;;;5036053;28;20049;-78
2022/12/21 01:52:54;;;;;;;46.03;10.75;;;;;;;;;;5034851;28;20124;-78
2022/12/21 01:55:20;;;;;;;79.30;11.77;;;;;;;;;;5034439;28;20080;-77
2022/12/21 01:57:47;;;;;;;36.33;9.75;;;;;;;;;;5034729;28;20049;-77
2022/12/21 02:00:13;;;;;;;50.53;9.60;;;;;;;;;;5035199;28;20073;-77
2022/12/21 02:03:01;;;;;;;124.88;15.57;;;;;;;;;;5037344;28;20101;-77
2022/12/21 02:05:45;;;;;;;94.30;12.52;;;;;;;;;;5019329;28;20057;-78
2022/12/21 02:08:11;;;;;;;108.47;14.55;;;;;;;;;;5014937;28;20050;-78
2022/12/21 02:10:38;;;;;;;119.35;13.10;;;;;;;;;;5035205;28;20048;-77
2022/12/21 02:13:08;;;;;;;92.72;12.88;;;;;;;;;;5037278;28;20100;-77
2022/12/21 02:15:46;;;;;;;70.75;11.23;;;;;;;;;;5014723;28;20049;-77
2022/12/21 02:18:12;;;;;;;142.25;16.42;;;;;;;;;;5029862;28;20049;-77
2022/12/21 02:20:58;;;;;;;96.65;13.45;;;;;;;;;;5013764;28;20397;-77
2022/12/21 02:23:27;;;;;;;122.32;15.00;;;;;;;;;;5023294;28;20045;-78
2022/12/21 02:26:12;;;;;;;83.10;12.48;;;;;;;;;;5034312;28;20103;-77
2022/12/21 02:28:57;;;;;;;98.47;13.88;;;;;;;;;;5033741;28;20042;-77
2022/12/21 02:31:32;;;;;;;71.13;13.50;;;;;;;;;;5034670;28;20076;-77
2022/12/21 02:34:04;;;;;;;78.28;13.07;;;;;;;;;;5034080;28;20049;-77
2022/12/21 02:36:30;;;;;;;46.25;11.60;;;;;;;;;;5033901;28;20057;-77
2022/12/21 02:39:03;;;;;;;42.00;11.85;;;;;;;;;;5033696;28;20041;-77
2022/12/21 02:41:45;;;;;;;33.45;10.60;;;;;;;;;;5047952;28;20045;-77
2022/12/21 02:44:17;;;;;;;40.22;11.27;;;;;;;;;;5033024;28;20053;-77
2022/12/21 02:46:50;;;;;;;27.33;10.77;;;;;;;;;;5033456;28;20041;-77
2022/12/21 02:49:42;;;;;;;32.30;10.75;;;;;;;;;;5033965;28;20041;-78
2022/12/21 02:52:19;;;;;;;45.40;10.52;;;;;;;;;;5011999;28;20453;-77
2022/12/21 02:54:46;;;;;;;64.95;11.30;;;;;;;;;;5034138;28;20044;-77
2022/12/21 02:57:12;;;;;;;67.15;12.30;;;;;;;;;;5043183;28;20497;-77
2022/12/21 02:59:42;;;;;;;51.17;11.63;;;;;;;;;;5033960;28;20095;-77
2022/12/21 03:02:26;;;;;;;60.95;10.52;;;;;;;;;;5033568;28;20033;-77
2022/12/21 03:05:04;;;;;;;43.50;11.40;;;;;;;;;;5033425;28;20110;-77
2022/12/21 03:07:57;;;;;;;52.17;11.52;;;;;;;;;;5034083;28;20042;-77
2022/12/21 03:10:42;;;;;;;49.63;11.00;;;;;;;;;;5037524;28;20088;-77
2022/12/21 03:13:26;;;;;;;45.88;10.60;;;;;;;;;;5032917;28;20450;-77
2022/12/21 03:15:59;;;;;;;57.53;12.27;;;;;;;;;;5032946;28;20640;-77
2022/12/21 03:18:31;;;;;;;56.83;11.90;;;;;;;;;;5033262;28;20033;-77
2022/12/21 03:21:00;;;;;;;52.78;11.48;;;;;;;;;;5033491;28;20057;-77
2022/12/21 03:23:30;;;;;;;64.35;12.05;;;;;;;;;;5036034;28;20119;-77
2022/12/21 03:26:01;;;;;;;60.40;12.27;;;;;;;;;;5035411;28;20123;-77
2022/12/21 03:28:29;;;;;;;78.35;13.50;;;;;;;;;;5033378;28;20156;-77
2022/12/21 03:30:59;;;;;;;56.05;12.48;;;;;;;;;;5034353;28;20041;-77
2022/12/21 03:33:28;;;;;;;47.78;11.93;;;;;;;;;;5037173;28;20112;-77
2022/12/21 03:36:05;;;;;;;33.30;11.45;;;;;;;;;;5019407;28;20493;-77
2022/12/21 03:38:34;;;;;;;38.35;10.75;;;;;;;;;;5042190;28;20041;-77
2022/12/21 03:41:02;;;;;;;30.70;10.40;;;;;;;;;;5056794;28;20045;-77
2022/12/21 03:43:33;;;;;;;78.55;12.95;;;;;;;;;;5050921;28;20033;-77
2022/12/21 03:46:01;;;;;;;66.38;13.20;;;;;;;;;;5019833;28;20496;-78
2022/12/21 03:48:39;;;;;;;54.42;11.95;;;;;;;;;;5036267;28;20404;-77
2022/12/21 03:51:15;;;;;;;52.30;11.40;;;;;;;;;;5019123;28;20121;-77
2022/12/21 03:53:41;;;;;;;68.38;12.50;;;;;;;;;;5008921;28;20409;-77
2022/12/21 03:56:08;;;;;;;48.22;12.65;;;;;;;;;;5036622;28;20501;-77
2022/12/21 03:58:36;;;;;;;84.20;14.32;;;;;;;;;;5037227;28;20044;-77
2022/12/21 04:01:02;;;;;;;68.63;13.52;;;;;;;;;;5019077;28;20579;-77
2022/12/21 04:03:32;;;;;;;61.28;13.02;;;;;;;;;;5036781;28;20077;-77
2022/12/21 04:06:02;;;;;;;41.72;13.70;;;;;;;;;;5036337;28;20073;-77
2022/12/21 04:08:29;;;;;;;63.58;12.82;;;;;;;;;;5033227;28;20044;-77
2022/12/21 04:10:55;;;;;;;41.33;10.93;;;;;;;;;;5036838;28;20041;-77
2022/12/21 04:13:21;;;;;;;42.47;11.52;;;;;;;;;;5036519;28;20064;-77
2022/12/21 04:16:05;;;;;;;55.78;13.13;;;;;;;;;;5036861;28;20092;-77
2022/12/21 04:21:19;;;;;;;47.88;11.95;;;;;;;;;;5035753;28;20045;-77
2022/12/21 04:29:16;;;;;;;47.78;11.73;;;;;;;;;;5036603;28;20045;-77
2022/12/21 04:31:42;;;;;;;39.40;10.23;;;;;;;;;;5036061;28;20061;-77
2022/12/21 04:34:08;;;;;;;54.53;11.93;;;;;;;;;;5036564;28;20049;-77
2022/12/21 04:39:19;;;;;;;34.80;10.35;;;;;;;;;;5016672;28;20050;-77
2022/12/21 04:41:45;;;;;;;31.30;9.63;;;;;;;;;;5015898;28;20062;-77
2022/12/21 04:44:11;;;;;;;36.05;9.70;;;;;;;;;;5015720;28;20046;-77
2022/12/21 04:46:37;;;;;;;57.20;12.40;;;;;;;;;;5016134;28;20046;-78
2022/12/21 04:49:03;;;;;;;38.40;9.80;;;;;;;;;;5016974;28;20128;-77
2022/12/21 04:51:29;;;;;;;51.35;11.55;;;;;;;;;;5023428;28;20124;-77
2022/12/21 04:53:56;;;;;;;39.95;10.43;;;;;;;;;;5055645;28;20124;-77
2022/12/21 04:56:22;;;;;;;37.83;11.07;;;;;;;;;;5049959;28;20088;-77
2022/12/21 04:58:48;;;;;;;44.58;10.43;;;;;;;;;;5035509;28;20056;-77
2022/12/21 05:01:15;;;;;;;40.42;10.57;;;;;;;;;;5035632;28;20494;-78
2022/12/21 05:03:41;;;;;;;40.65;10.40;;;;;;;;;;5035776;28;20044;-78
2022/12/21 05:06:09;;;;;;;53.00;11.32;;;;;;;;;;5035489;28;20390;-77
2022/12/21 05:08:35;;;;;;;54.03;11.30;;;;;;;;;;5033929;28;20053;-77
2022/12/21 05:11:08;;;;;;;45.70;11.65;;;;;;;;;;5035329;28;20053;-77
2022/12/21 05:13:34;;;;;;;36.85;10.98;;;;;;;;;;5034844;28;20057;-77
2022/12/21 05:16:07;;;;;;;43.85;10.30;;;;;;;;;;5003933;28;20045;-78
2022/12/21 05:18:33;;;;;;;53.15;11.68;;;;;;;;;;5022594;28;20056;-77
2022/12/21 05:20:59;;;;;;;39.35;10.60;;;;;;;;;;5023566;28;20061;-78
2022/12/21 05:23:25;;;;;;;43.97;11.50;;;;;;;;;;5023458;28;20050;-77
2022/12/21 05:25:51;;;;;;;60.80;13.63;;;;;;;;;;5020571;28;20046;-77
2022/12/21 05:28:17;;;;;;;33.00;10.00;;;;;;;;;;5019290;28;20048;-77
2022/12/21 05:30:43;;;;;;;42.72;10.88;;;;;;;;;;5036255;28;20053;-77
2022/12/21 05:33:09;;;;;;;47.35;10.73;;;;;;;;;;5017716;28;20056;-78
2022/12/21 05:35:42;;;;;;;46.95;12.00;;;;;;;;;;5035145;28;20124;-78
2022/12/21 05:38:09;;;;;;;41.50;11.35;;;;;;;;;;5019472;28;20053;-78
2022/12/21 05:40:35;;;;;;;86.30;14.30;;;;;;;;;;5045538;28;20128;-78
2022/12/21 05:43:02;;;;;;;69.45;12.55;;;;;;;;;;5017031;28;20434;-78
2022/12/21 05:45:28;;;;;;;47.42;11.73;;;;;;;;;;5035231;28;20112;-78
2022/12/21 05:47:54;;;;;;;85.35;14.85;;;;;;;;;;5035133;28;20052;-78
2022/12/21 05:50:20;;;;;;;64.80;14.35;;;;;;;;;;5034874;28;20347;-77
2022/12/21 05:52:46;;;;;;;47.15;12.48;;;;;;;;;;5020922;28;20541;-77
2022/12/21 05:55:12;;;;;;;69.60;14.95;;;;;;;;;;5034733;28;20473;-77
2022/12/21 05:57:38;;;;;;;40.70;11.88;;;;;;;;;;5034601;28;20056;-78
2022/12/21 06:00:05;;;;;;;41.30;13.02;;;;;;;;;;5035230;28;20080;-78
2022/12/21 06:02:31;;;;;;;34.33;12.30;;;;;;;;;;5034682;28;20072;-78
2022/12/21 06:04:57;;;;;;;33.88;13.30;;;;;;;;;;5035130;28;20508;-77
2022/12/21 06:07:23;;;;;;;41.20;13.32;;;;;;;;;;5049652;28;20084;-77
2022/12/21 06:09:54;;;;;;;34.60;13.18;;;;;;;;;;5034448;28;20052;-77
2022/12/21 06:12:20;;;;;;;31.45;13.18;;;;;;;;;;5034371;28;20048;-77
2022/12/21 06:14:46;;;;;;;44.53;14.63;;;;;;;;;;5034719;28;20049;-77
2022/12/21 06:17:12;;;;;;;33.20;12.43;;;;;;;;;;5034380;28;20041;-77
2022/12/21 06:19:38;;;;;;;45.38;14.90;;;;;;;;;;5034643;28;20091;-77
2022/12/21 06:22:09;;;;;;;41.10;13.57;;;;;;;;;;5038455;28;20045;-78
2022/12/21 06:24:35;;;;;;;41.00;13.13;;;;;;;;;;4999805;28;20138;-78
2022/12/21 06:27:04;;;;;;;37.25;13.48;;;;;;;;;;5034251;28;20092;-77
2022/12/21 06:29:30;;;;;;;38.88;11.95;;;;;;;;;;5034270;28;20478;-78
2022/12/21 06:31:56;;;;;;;57.75;13.52;;;;;;;;;;5034141;28;20128;-78
2022/12/21 06:34:22;;;;;;;52.42;13.70;;;;;;;;;;5034281;28;20048;-78
2022/12/21 06:36:48;;;;;;;44.65;12.10;;;;;;;;;;5033216;28;20409;-77
2022/12/21 06:39:14;;;;;;;42.65;13.20;;;;;;;;;;5033854;28;20049;-77
2022/12/21 06:41:40;;;;;;;41.22;12.85;;;;;;;;;;5033647;28;20037;-77
2022/12/21 06:44:12;;;;;;;41.67;12.60;;;;;;;;;;5033660;28;20492;-77
2022/12/21 06:46:38;;;;;;;28.75;11.82;;;;;;;;;;5034338;28;20049;-79
2022/12/21 06:49:04;;;;;;;30.83;12.10;;;;;;;;;;5033671;28;20543;-77
2022/12/21 06:51:33;;;;;;;37.03;13.13;;;;;;;;;;5027591;28;20029;-77
2022/12/21 06:54:02;;;;;;;27.85;11.15;;;;;;;;;;5033269;28;20073;-77
2022/12/21 06:56:30;;;;;;;32.03;11.55;;;;;;;;;;5034151;28;20519;-78
2022/12/21 06:58:57;;;;;;;30.63;12.68;;;;;;;;;;5033688;28;20041;-78
2022/12/21 07:01:24;;;;;;;32.75;13.65;;;;;;;;;;5033850;28;20049;-78
2022/12/21 07:03:50;;;;;;;30.92;13.20;;;;;;;;;;5033767;28;20045;-77
2022/12/21 07:06:17;;;;;;;28.92;13.57;;;;;;;;;;5048863;28;20382;-78
2022/12/21 07:08:44;;;;;;;34.00;12.85;;;;;;;;;;5054323;28;20045;-77
2022/12/21 07:11:12;;;;;;;37.28;14.75;;;;;;;;;;5053761;28;20037;-77
2022/12/21 07:13:39;;;;;;;27.55;12.43;;;;;;;;;;5031449;28;20057;-78
2022/12/21 07:16:06;;;;;;;36.55;13.75;;;;;;;;;;5032498;28;20103;-77
2022/12/21 07:18:32;;;;;;;29.42;13.50;;;;;;;;;;5033482;28;20458;-77
2022/12/21 07:21:02;;;;;;;33.95;13.50;;;;;;;;;;5048616;28;20056;-78
2022/12/21 07:23:29;;;;;;;25.85;12.23;;;;;;;;;;5038306;28;20083;-77
2022/12/21 07:25:56;;;;;;;29.73;12.93;;;;;;;;;;5034361;28;20601;-78
2022/12/21 07:28:22;;;;;;;33.58;13.00;;;;;;;;;;5034264;28;20164;-78
2022/12/21 07:30:48;;;;;;;32.78;14.80;;;;;;;;;;5034954;28;20516;-78
2022/12/21 07:33:15;;;;;;;36.28;14.80;;;;;;;;;;5028194;28;20152;-78
2022/12/21 07:35:41;;;;;;;30.48;14.70;;;;;;;;;;5052327;28;20537;-78
2022/12/21 07:38:07;;;;;;;29.02;14.32;;;;;;;;;;5053306;28;20091;-77
2022/12/21 07:40:33;;;;;;;35.15;14.30;;;;;;;;;;5042994;28;20038;-77
2022/12/21 07:42:59;;;;;;;32.10;14.38;;;;;;;;;;5032513;28;20397;-77
2022/12/21 07:45:26;;;;;;;37.17;14.55;;;;;;;;;;5032939;28;20473;-78
2022/12/21 07:47:55;;;;;;;38.70;14.85;;;;;;;;;;5033091;28;20124;-77
2022/12/21 07:50:21;;;;;;;34.35;14.35;;;;;;;;;;5038153;28;20034;-77
2022/12/21 07:52:47;;;;;;;35.00;14.05;;;;;;;;;;5033379;28;20045;-77
2022/12/21 07:55:13;;;;;;;35.78;15.43;;;;;;;;;;5032626;28;20041;-77
2022/12/21 07:57:39;;;;;;;35.38;14.93;;;;;;;;;;5033002;28;20038;-77
2022/12/21 08:00:06;;;;;;;29.98;13.88;;;;;;;;;;5033144;28;20084;-77
2022/12/21 08:02:32;;;;;;;35.00;14.73;;;;;;;;;;5032273;28;20037;-77
2022/12/21 08:04:58;;;;;;;42.17;15.73;;;;;;;;;;5032738;28;20083;-77
2022/12/21 08:07:24;;;;;;;35.35;14.50;;;;;;;;;;5015421;28;20052;-77
2022/12/21 08:09:50;;;;;;;39.97;15.27;;;;;;;;;;5015459;28;20073;-77
2022/12/21 08:12:16;;;;;;;36.90;15.25;;;;;;;;;;5014772;28;20045;-78
2022/12/21 08:14:42;;;;;;;38.47;15.52;;;;;;;;;;5014997;28;20069;-77
2022/12/21 08:17:08;;;;;;;37.67;16.60;;;;;;;;;;5016140;28;20073;-77
2022/12/21 08:19:34;;;;;;;38.88;16.50;;;;;;;;;;5018777;28;20046;-77
2022/12/21 08:22:00;;;;;;;34.92;15.10;;;;;;;;;;5018727;28;20124;-77
2022/12/21 08:24:28;;;;;;;33.65;14.57;;;;;;;;;;5018642;28;20488;-77
2022/12/21 08:26:54;;;;;;;40.08;17.58;;;;;;;;;;5018619;28;20513;-78
2022/12/21 08:29:20;;;;;;;37.75;15.88;;;;;;;;;;5019748;28;20053;-77
2022/12/21 08:31:46;;;;;;;42.65;18.23;;;;;;;;;;5036892;28;20095;-80
2022/12/21 08:34:12;;;;;;;44.80;18.15;;;;;;;;;;5022254;28;20045;-77
2022/12/21 08:36:40;;;;;;;46.30;18.17;;;;;;;;;;5003185;28;20046;-78
2022/12/21 08:39:06;;;;;;;45.85;18.35;;;;;;;;;;5016371;28;20050;-76
2022/12/21 08:41:32;;;;;;;47.92;19.65;;;;;;;;;;5031464;28;20033;-76
2022/12/21 08:43:58;;;;;;;41.80;18.95;;;;;;;;;;5036034;28;20453;-77
2022/12/21 08:46:24;;;;;;;58.35;20.80;;;;;;;;;;5036830;28;20042;-77
2022/12/21 08:48:50;;;;;;;56.63;20.02;;;;;;;;;;5036820;28;20075;-77
2022/12/21 08:51:16;;;;;;;49.95;20.73;;;;;;;;;;5018331;28;20045;-77
2022/12/21 08:53:42;;;;;;;69.47;22.52;;;;;;;;;;5016627;28;20053;-77
2022/12/21 08:56:09;;;;;;;50.40;20.33;;;;;;;;;;5021190;28;20123;-77
2022/12/21 08:58:35;;;;;;;53.65;21.08;;;;;;;;;;5047184;28;20461;-77
2022/12/21 09:01:01;;;;;;;61.45;20.95;;;;;;;;;;5055741;28;20132;-77
2022/12/21 09:03:27;;;;;;;58.83;22.33;;;;;;;;;;5022700;28;20124;-77
2022/12/21 09:05:54;;;;;;;42.05;19.27;;;;;;;;;;5004827;28;20121;-77
2022/12/21 09:08:20;;;;;;;58.58;21.60;;;;;;;;;;5035611;28;20041;-79
2022/12/21 09:10:46;;;;;;;50.22;20.10;;;;;;;;;;5035793;28;20060;-77
2022/12/21 09:13:13;;;;;;;53.33;20.33;;;;;;;;;;5035006;28;20200;-76
2022/12/21 09:15:42;;;;;;;44.40;18.15;;;;;;;;;;5032779;28;20057;-76
2022/12/21 09:18:09;;;;;;;42.70;17.33;;;;;;;;;;5032673;28;20128;-76
2022/12/21 09:20:35;;;;;;;41.35;18.50;;;;;;;;;;5034059;28;20057;-76
2022/12/21 09:23:02;;;;;;;50.55;19.55;;;;;;;;;;5034984;28;20045;-77
2022/12/21 09:25:28;;;;;;;45.08;17.60;;;;;;;;;;5040911;28;20125;-76
2022/12/21 09:27:54;;;;;;;44.83;18.83;;;;;;;;;;5034402;28;20041;-78
2022/12/21 09:30:21;;;;;;;47.33;17.65;;;;;;;;;;5034177;28;20047;-76
2022/12/21 09:32:48;;;;;;;46.97;18.77;;;;;;;;;;5035055;28;20049;-76
2022/12/21 09:35:14;;;;;;;49.40;18.98;;;;;;;;;;5035034;28;20446;-77
2022/12/21 09:37:43;;;;;;;61.10;21.15;;;;;;;;;;5033033;28;20089;-77
2022/12/21 09:40:11;;;;;;;55.25;20.38;;;;;;;;;;5034374;28;20044;-76
2022/12/21 09:42:38;;;;;;;66.53;21.95;;;;;;;;;;5033997;28;20369;-76
2022/12/21 09:45:13;;;;;;;53.60;21.08;;;;;;;;;;5034879;28;20513;-76
2022/12/21 09:47:45;;;;;;;50.08;20.15;;;;;;;;;;5031325;28;20124;-76
2022/12/21 09:50:13;;;;;;;57.90;21.95;;;;;;;;;;5034027;28;20053;-77
2022/12/21 09:52:43;;;;;;;58.45;22.70;;;;;;;;;;5034654;28;20473;-78
2022/12/21 09:55:17;;;;;;;60.45;20.55;;;;;;;;;;5041816;28;20041;-77
2022/12/21 09:57:43;;;;;;;48.20;19.67;;;;;;;;;;5017253;28;20041;-77
2022/12/21 10:00:23;;;;;;;59.25;21.08;;;;;;;;;;5034894;28;20041;-77
2022/12/21 10:02:58;;;;;;;47.05;19.17;;;;;;;;;;5034692;28;20128;-76
2022/12/21 10:05:30;;;;;;;55.67;21.90;;;;;;;;;;5046047;28;20067;-77
2022/12/21 10:07:56;;;;;;;47.65;20.10;;;;;;;;;;5008286;28;20037;-77
2022/12/21 10:10:29;;;;;;;47.95;20.17;;;;;;;;;;5016653;28;20045;-77
2022/12/21 10:13:13;;;;;;;46.55;19.65;;;;;;;;;;5033953;28;20514;-76
2022/12/21 10:15:39;;;;;;;45.92;19.40;;;;;;;;;;5022601;28;20049;-78
2022/12/21 10:18:11;;;;;;;52.45;20.88;;;;;;;;;;5035112;28;20164;-78
2022/12/21 10:20:46;;;;;;;54.22;22.58;;;;;;;;;;5036894;28;20417;-80
2022/12/21 10:23:24;;;;;;;60.60;23.65;;;;;;;;;;5053358;28;20087;-78
2022/12/21 10:25:58;;;;;;;54.65;21.10;;;;;;;;;;5034941;28;20052;-77
2022/12/21 10:28:27;;;;;;;56.83;23.15;;;;;;;;;;5033979;28;20053;-76
2022/12/21 10:30:56;;;;;;;45.70;19.85;;;;;;;;;;5035790;28;20080;-79
2022/12/21 10:33:23;;;;;;;54.80;22.00;;;;;;;;;;5018845;28;20044;-77
2022/12/21 10:35:50;;;;;;;44.25;20.13;;;;;;;;;;5040058;28;20053;-75
2022/12/21 10:38:20;;;;;;;51.60;21.33;;;;;;;;;;5033866;28;20512;-75
2022/12/21 10:40:52;;;;;;;63.17;23.23;;;;;;;;;;5032469;28;20041;-76
2022/12/21 10:43:18;;;;;;;59.50;22.20;;;;;;;;;;5027461;28;20553;-76
2022/12/21 10:45:44;;;;;;;63.58;23.58;;;;;;;;;;5029414;28;20505;-76
2022/12/21 10:48:11;;;;;;;50.83;20.73;;;;;;;;;;5037268;28;20045;-76
2022/12/21 10:50:39;;;;;;;50.53;21.38;;;;;;;;;;5020007;28;20041;-76
2022/12/21 10:53:20;;;;;;;56.88;23.73;;;;;;;;;;5033707;28;20049;-76
2022/12/21 10:55:46;;;;;;;58.25;23.80;;;;;;;;;;5033776;28;20045;-76
2022/12/21 10:58:13;;;;;;;70.72;25.40;;;;;;;;;;5016008;28;20168;-76
2022/12/21 11:00:49;;;;;;;59.58;25.27;;;;;;;;;;5033718;28;20050;-76
2022/12/21 11:03:21;;;;;;;63.25;26.05;;;;;;;;;;5040352;28;20551;-76
2022/12/21 11:05:47;;;;;;;55.00;23.77;;;;;;;;;;5033035;28;20517;-76
2022/12/21 11:08:16;;;;;;;59.67;25.58;;;;;;;;;;5033489;28;20045;-76
2022/12/21 11:10:44;;;;;;;55.03;24.42;;;;;;;;;;5033850;28;20096;-76
2022/12/21 11:13:11;;;;;;;53.15;21.92;;;;;;;;;;5033351;28;20497;-77
2022/12/21 11:15:38;;;;;;;38.22;20.15;;;;;;;;;;5033708;28;20173;-77
2022/12/21 11:18:05;;;;;;;45.75;20.15;;;;;;;;;;5034507;28;20038;-77
2022/12/21 11:20:32;;;;;;;46.95;20.27;;;;;;;;;;5032939;28;20087;-77
2022/12/21 11:22:59;;;;;;;41.05;21.00;;;;;;;;;;5015096;28;20447;-77
2022/12/21 11:25:26;;;;;;;45.88;21.15;;;;;;;;;;5033080;28;20065;-77
2022/12/21 11:27:56;;;;;;;42.80;20.75;;;;;;;;;;5033058;28;20553;-77
2022/12/21 11:30:24;;;;;;;44.17;21.58;;;;;;;;;;5032089;28;20493;-76
2022/12/21 11:32:53;;;;;;;44.22;19.83;;;;;;;;;;5037361;28;20083;-76
2022/12/21 11:35:21;;;;;;;41.90;19.83;;;;;;;;;;5032582;28;20473;-76
2022/12/21 11:37:51;;;;;;;49.22;21.77;;;;;;;;;;5032490;28;20038;-76
2022/12/21 11:40:22;;;;;;;42.75;20.70;;;;;;;;;;5032400;28;20058;-77
2022/12/21 11:43:00;;;;;;;49.17;21.63;;;;;;;;;;5033158;28;20041;-77
2022/12/21 11:45:46;;;;;;;46.63;20.90;;;;;;;;;;5039634;28;20048;-77
2022/12/21 11:48:12;;;;;;;38.70;20.38;;;;;;;;;;5032668;28;20513;-77
2022/12/21 11:50:41;;;;;;;42.17;19.45;;;;;;;;;;5018059;28;20051;-79
2022/12/21 11:53:19;;;;;;;38.75;18.92;;;;;;;;;;5040888;28;20046;-77
2022/12/21 11:55:52;;;;;;;41.10;17.60;;;;;;;;;;5041347;28;20095;-78
2022/12/21 11:58:27;;;;;;;39.30;18.05;;;;;;;;;;5019769;28;20172;-77
2022/12/21 12:01:00;;;;;;;37.95;17.25;;;;;;;;;;5035721;28;20034;-78
2022/12/21 12:03:33;;;;;;;42.70;19.00;;;;;;;;;;5030196;28;20053;-77
2022/12/21 12:06:05;;;;;;;35.22;17.35;;;;;;;;;;5032405;28;20045;-77
2022/12/21 12:08:39;;;;;;;32.40;16.95;;;;;;;;;;5038668;28;20041;-77
2022/12/21 12:11:15;;;;;;;32.17;16.05;;;;;;;;;;5036753;28;20393;-77
2022/12/21 12:13:59;;;;;;;37.23;15.40;;;;;;;;;;5037173;28;20053;-78
2022/12/21 12:16:48;;;;;;;35.80;15.70;;;;;;;;;;5035975;28;20414;-77
2022/12/21 12:19:28;;;;;;;32.88;15.68;;;;;;;;;;5037163;28;20033;-78
2022/12/21 12:22:03;;;;;;;34.30;15.32;;;;;;;;;;5036337;28;20041;-78
2022/12/21 12:24:39;;;;;;;32.90;16.00;;;;;;;;;;5002413;28;20049;-79
2022/12/21 12:27:14;;;;;;;34.70;15.25;;;;;;;;;;5036319;28;20052;-78
2022/12/21 12:29:56;;;;;;;30.63;14.95;;;;;;;;;;5036111;28;20124;-78
2022/12/21 12:32:35;;;;;;;29.67;15.05;;;;;;;;;;5038414;28;20038;-77
2022/12/21 12:35:08;;;;;;;31.23;13.40;;;;;;;;;;5036178;28;20084;-76
2022/12/21 12:37:37;;;;;;;32.00;15.30;;;;;;;;;;5036468;28;20056;-81
2022/12/21 12:40:22;;;;;;;31.17;14.50;;;;;;;;;;5035182;28;20048;-77
2022/12/21 12:43:00;;;;;;;31.08;16.33;;;;;;;;;;5036541;28;20402;-77
2022/12/21 12:45:38;;;;;;;34.30;17.00;;;;;;;;;;5027956;28;20386;-76
2022/12/21 12:48:23;;;;;;;32.92;16.50;;;;;;;;;;5038231;28;20072;-80
2022/12/21 12:50:57;;;;;;;36.33;18.02;;;;;;;;;;5034841;28;20041;-80
2022/12/21 12:53:26;;;;;;;40.17;20.33;;;;;;;;;;5021541;28;20073;-78
2022/12/21 12:56:15;;;;;;;41.88;21.25;;;;;;;;;;5029973;28;20624;-76
2022/12/21 12:58:53;;;;;;;44.05;21.75;;;;;;;;;;4991556;28;20447;-76
2022/12/21 13:01:30;;;;;;;45.40;23.60;;;;;;;;;;4994482;28;20092;-77
2022/12/21 13:03:55;;;;;;;;;;;;;;;;;;4959306;28;20090;-77
2022/12/21 13:06:34;;;;;;;52.27;24.97;;;;;;;;;;4983971;28;19964;-77
2022/12/21 13:09:10;;;;;;;45.60;23.05;;;;;;;;;;4994161;28;20141;-80
2022/12/21 13:11:45;;;;;;;49.53;24.17;;;;;;;;;;4989837;28;20118;-81
2022/12/21 13:14:23;;;;;;;47.92;25.67;;;;;;;;;;4994257;28;20426;-78
2022/12/21 13:16:57;;;;;;;50.38;25.58;;;;;;;;;;4994436;28;20101;-77
2022/12/21 13:19:24;;;;;;;45.85;25.23;;;;;;;;;;4996917;28;20057;-78
2022/12/21 13:21:51;;;;;;;52.33;23.95;;;;;;;;;;4988315;28;20137;-77
2022/12/21 13:24:36;;;;;;;51.05;25.23;;;;;;;;;;4993661;28;20046;-77
2022/12/21 13:27:06;;;;;;;41.38;23.35;;;;;;;;;;4993083;28;20038;-78
2022/12/21 13:29:38;;;;;;;52.42;24.35;;;;;;;;;;4987700;28;20054;-78
2022/12/21 13:32:08;;;;;;;45.85;23.23;;;;;;;;;;4981753;28;20646;-77
2022/12/21 13:34:52;;;;;;;40.20;21.27;;;;;;;;;;4994319;28;20045;-79
2022/12/21 13:37:18;;;;;;;47.00;25.05;;;;;;;;;;5042004;28;20045;-78
2022/12/21 13:39:47;;;;;;;44.55;24.02;;;;;;;;;;5031946;28;20465;-77
2022/12/21 13:42:20;;;;;;;43.50;23.92;;;;;;;;;;5035134;28;20073;-77
2022/12/21 13:44:54;;;;;;;49.05;23.85;;;;;;;;;;5034343;28;20395;-77
2022/12/21 13:47:21;;;;;;;38.78;22.17;;;;;;;;;;5034427;28;20402;-77
2022/12/21 13:49:53;;;;;;;45.33;23.23;;;;;;;;;;5015942;28;20566;-77
2022/12/21 13:52:25;;;;;;;38.00;22.23;;;;;;;;;;5034271;28;20042;-77
2022/12/21 13:54:55;;;;;;;39.22;23.65;;;;;;;;;;5039119;28;20072;-77
2022/12/21 13:57:41;;;;;;;35.78;21.35;;;;;;;;;;5047565;28;20112;-78
2022/12/21 14:00:22;;;;;;;38.47;22.15;;;;;;;;;;5042734;28;20533;-78
2022/12/21 14:03:11;;;;;;;44.00;21.08;;;;;;;;;;5035106;28;20050;-80
2022/12/21 14:05:44;;;;;;;40.10;21.80;;;;;;;;;;5034300;28;20049;-77
2022/12/21 14:08:27;;;;;;;39.95;21.15;;;;;;;;;;5034470;28;20053;-78
2022/12/21 14:11:11;;;;;;;39.13;22.58;;;;;;;;;;5018075;28;20029;-77
2022/12/21 14:13:47;;;;;;;36.88;21.48;;;;;;;;;;5030873;28;20054;-78
2022/12/21 14:16:23;;;;;;;42.15;21.83;;;;;;;;;;5034588;28;20041;-78
2022/12/21 14:18:53;;;;;;;38.05;21.35;;;;;;;;;;5033756;28;20053;-78
2022/12/21 14:21:23;;;;;;;37.63;20.73;;;;;;;;;;5047998;28;20040;-78
2022/12/21 14:23:51;;;;;;;36.15;21.85;;;;;;;;;;5016545;28;20053;-84
2022/12/21 14:26:36;;;;;;;39.25;21.02;;;;;;;;;;5021760;28;20052;-78
2022/12/21 14:29:23;;;;;;;36.58;20.85;;;;;;;;;;5033143;28;20187;-77
2022/12/21 14:32:00;;;;;;;37.95;22.25;;;;;;;;;;5017417;28;20409;-77
2022/12/21 14:34:37;;;;;;;38.35;22.75;;;;;;;;;;5027423;28;20053;-78
2022/12/21 14:37:09;;;;;;;46.20;23.55;;;;;;;;;;5025410;28;20044;-77
2022/12/21 14:39:35;;;;;;;43.15;24.20;;;;;;;;;;5024622;28;20042;-77
2022/12/21 14:42:20;;;;;;;46.78;24.25;;;;;;;;;;5025435;28;20568;-78
2022/12/21 14:45:05;;;;;;;39.42;21.80;;;;;;;;;;5030378;28;20042;-78
2022/12/21 14:47:31;;;;;;;40.38;22.38;;;;;;;;;;5027550;28;20046;-78